createdAt,value
2018-09-16T00:02:09.748Z,102006.16
2018-09-16T00:04:36.908Z,102017.59
2018-09-16T00:07:04.142Z,102014.95
2018-09-16T00:09:31.372Z,102014.12
2018-09-16T00:11:58.508Z,102015.88
2018-09-16T00:14:25.768Z,102014.95
2018-09-16T00:16:52.968Z,102009.69
2018-09-16T00:19:20.117Z,102013.67
2018-09-16T00:21:47.365Z,102019.34
2018-09-16T00:24:14.529Z,102017.20
2018-09-16T00:26:41.704Z,102020.71
2018-09-16T00:29:09.153Z,102024.70
2018-09-16T00:31:36.394Z,102029.97
2018-09-16T00:34:03.627Z,102025.55
2018-09-16T00:36:30.835Z,102028.66
2018-09-16T00:38:57.987Z,102029.58
2018-09-16T00:41:25.155Z,102022.95
2018-09-16T00:43:52.374Z,102023.39
2018-09-16T00:46:19.525Z,102024.31
2018-09-16T00:48:46.709Z,102026.50
2018-09-16T00:51:13.948Z,102030.93
2018-09-16T00:53:41.112Z,102030.05
2018-09-16T00:56:08.409Z,102024.79
2018-09-16T00:58:35.648Z,102031.81
2018-09-16T01:01:02.969Z,102037.08
2018-09-16T01:03:30.143Z,102030.05
2018-09-16T01:06:02.905Z,102027.42
2018-09-16T01:08:30.058Z,102035.36
2018-09-16T01:10:57.892Z,102028.81
2018-09-16T01:13:25.159Z,102027.89
2018-09-16T01:15:52.310Z,102028.37
2018-09-16T01:18:19.502Z,102028.36
2018-09-16T01:20:46.766Z,102026.20
2018-09-16T01:23:14.024Z,102028.39
2018-09-16T01:25:41.272Z,102033.66
2018-09-16T01:28:08.513Z,102027.95
2018-09-16T01:30:35.738Z,102029.73
2018-09-16T01:33:02.932Z,102026.67
2018-09-16T01:35:30.157Z,102026.67
2018-09-16T01:38:03.026Z,102024.50
2018-09-16T01:40:30.286Z,102030.20
2018-09-16T01:42:57.476Z,102018.33
2018-09-16T01:45:24.636Z,102013.97
2018-09-16T01:47:51.914Z,102020.55
2018-09-16T01:50:19.181Z,102026.25
2018-09-16T01:52:46.384Z,102025.38
2018-09-16T01:55:13.597Z,102017.95
2018-09-16T01:57:40.771Z,102022.77
2018-09-16T02:00:08.028Z,102020.13
2018-09-16T02:02:35.289Z,102023.20
2018-09-16T02:05:02.448Z,102017.94
2018-09-16T02:07:29.594Z,102022.30
2018-09-16T02:09:56.821Z,102023.19
2018-09-16T02:12:23.973Z,102022.75
2018-09-16T02:14:51.213Z,102024.91
2018-09-16T02:17:18.447Z,102027.08
2018-09-16T02:19:45.700Z,102026.61
2018-09-16T02:22:12.948Z,102020.94
2018-09-16T02:24:40.195Z,102020.50
2018-09-16T02:27:07.385Z,102017.84
2018-09-16T02:29:34.576Z,102016.05
2018-09-16T02:32:01.819Z,102012.10
2018-09-16T02:34:31.772Z,102016.05
2018-09-16T02:36:59.150Z,102012.54
2018-09-16T02:39:39.236Z,102015.20
2018-09-16T02:42:06.538Z,102017.37
2018-09-16T02:44:33.697Z,102026.20
2018-09-16T02:47:00.926Z,102020.47
2018-09-16T02:49:28.127Z,102017.40
2018-09-16T02:52:05.785Z,102009.47
2018-09-16T02:54:37.284Z,102012.53
2018-09-16T02:57:04.594Z,102009.91
2018-09-16T02:59:31.802Z,102011.29
2018-09-16T03:01:59.100Z,102004.30
2018-09-16T03:04:26.362Z,102006.48
2018-09-16T03:06:53.528Z,102004.33
2018-09-16T03:09:20.703Z,102001.69
2018-09-16T03:11:48.033Z,101999.96
2018-09-16T03:14:15.157Z,102003.95
2018-09-16T03:16:42.401Z,102005.70
2018-09-16T03:19:09.669Z,102000.88
2018-09-16T03:21:36.868Z,102002.19
2018-09-16T03:24:04.056Z,101996.91
2018-09-16T03:26:31.309Z,101994.73
2018-09-16T03:28:58.529Z,101999.98
2018-09-16T03:31:25.722Z,101993.88
2018-09-16T03:33:52.937Z,101995.17
2018-09-16T03:36:20.157Z,101996.92
2018-09-16T03:38:47.400Z,101993.86
2018-09-16T03:41:14.697Z,101997.36
2018-09-16T03:43:41.888Z,101985.11
2018-09-16T03:46:09.087Z,101990.78
2018-09-16T03:48:36.371Z,101985.98
2018-09-16T03:51:03.566Z,101988.17
2018-09-16T03:53:30.809Z,101990.80
2018-09-16T03:55:58.047Z,101989.94
2018-09-16T03:58:25.302Z,101988.60
2018-09-16T04:00:52.509Z,101982.92
2018-09-16T04:03:19.741Z,101992.98
2018-09-16T04:05:46.981Z,101992.97
2018-09-16T04:08:14.235Z,101987.28
2018-09-16T04:10:41.461Z,101989.03
2018-09-16T04:13:08.692Z,101991.22
2018-09-16T04:15:35.874Z,101989.05
2018-09-16T04:18:03.131Z,101989.02
2018-09-16T04:20:30.318Z,101990.36
2018-09-16T04:22:57.518Z,101986.39
2018-09-16T04:25:24.757Z,101986.83
2018-09-16T04:27:51.949Z,101990.80
2018-09-16T04:30:19.154Z,101993.40
2018-09-16T04:32:46.448Z,101982.88
2018-09-16T04:35:13.626Z,101983.79
2018-09-16T04:37:40.809Z,101989.45
2018-09-16T04:40:08.427Z,101981.58
2018-09-16T04:42:35.630Z,101984.66
2018-09-16T04:45:02.850Z,101989.48
2018-09-16T04:47:30.112Z,101988.59
2018-09-16T04:49:57.332Z,101990.80
2018-09-16T04:52:24.535Z,101987.72
2018-09-16T04:54:51.767Z,101993.88
2018-09-16T04:57:19.011Z,101993.87
2018-09-16T04:59:46.344Z,101991.25
2018-09-16T05:02:13.626Z,101994.73
2018-09-16T05:04:40.929Z,101998.67
2018-09-16T05:07:08.770Z,102001.30
2018-09-16T05:09:36.301Z,102007.45
2018-09-16T05:12:03.822Z,102008.30
2018-09-16T05:14:31.387Z,102013.14
2018-09-16T05:16:59.023Z,102004.83
2018-09-16T05:19:26.522Z,102008.77
2018-09-16T05:21:53.811Z,102005.70
2018-09-16T05:24:24.921Z,102016.19
2018-09-16T05:26:52.129Z,102017.53
2018-09-16T05:29:19.674Z,102023.22
2018-09-16T05:31:46.933Z,102024.08
2018-09-16T05:34:14.622Z,102022.77
2018-09-16T05:36:42.344Z,102025.84
2018-09-16T05:39:10.589Z,102022.35
2018-09-16T05:41:37.817Z,102030.22
2018-09-16T05:44:06.033Z,102027.17
2018-09-16T05:46:33.433Z,102027.59
2018-09-16T05:49:00.650Z,102034.20
2018-09-16T05:51:28.577Z,102032.00
2018-09-16T05:53:55.856Z,102035.91
2018-09-16T05:56:23.064Z,102036.32
2018-09-16T05:58:50.277Z,102034.07
2018-09-16T06:01:17.553Z,102037.08
2018-09-16T06:03:46.372Z,102036.20
2018-09-16T06:06:13.734Z,102038.75
2018-09-16T06:08:41.139Z,102047.48
2018-09-16T06:11:08.513Z,102045.20
2018-09-16T06:13:35.753Z,102043.78
2018-09-16T06:16:03.045Z,102048.60
2018-09-16T06:18:30.331Z,102050.37
2018-09-16T06:20:57.574Z,102051.16
2018-09-16T06:23:24.869Z,102055.02
2018-09-16T06:25:52.381Z,102056.28
2018-09-16T06:28:19.623Z,102060.05
2018-09-16T06:30:46.888Z,102057.75
2018-09-16T06:33:14.102Z,102059.48
2018-09-16T06:35:41.381Z,102054.38
2018-09-16T06:38:08.590Z,102053.42
2018-09-16T06:40:37.732Z,102060.70
2018-09-16T06:43:04.967Z,102057.77
2018-09-16T06:45:32.574Z,102064.63
2018-09-16T06:47:59.815Z,102068.98
2018-09-16T06:50:26.964Z,102073.16
2018-09-16T06:52:54.225Z,102071.16
2018-09-16T06:55:21.382Z,102078.50
2018-09-16T06:57:48.674Z,102082.19
2018-09-16T07:00:19.892Z,102077.05
2018-09-16T07:02:47.077Z,102071.41
2018-09-16T07:05:14.245Z,102069.39
2018-09-16T07:07:41.521Z,102069.41
2018-09-16T07:10:08.757Z,102067.86
2018-09-16T07:12:35.928Z,102067.12
2018-09-16T07:15:03.246Z,102059.44
2018-09-16T07:17:30.445Z,102049.12
2018-09-16T07:19:57.642Z,102049.70
2018-09-16T07:22:24.884Z,102054.41
2018-09-16T07:24:52.178Z,102056.09
2018-09-16T07:27:19.365Z,102054.17
2018-09-16T07:29:46.584Z,102055.96
2018-09-16T07:32:13.836Z,102053.14
2018-09-16T07:34:41.081Z,102053.54
2018-09-16T07:37:08.316Z,102062.48
2018-09-16T07:39:35.485Z,102062.55
2018-09-16T07:42:02.732Z,102060.84
2018-09-16T07:44:29.954Z,102066.98
2018-09-16T07:46:57.257Z,102074.34
2018-09-16T07:49:24.409Z,102069.35
2018-09-16T07:51:51.641Z,102068.59
2018-09-16T07:54:18.830Z,102069.67
2018-09-16T07:56:46.017Z,102073.58
2018-09-16T07:59:13.229Z,102078.09
2018-09-16T08:01:40.440Z,102067.55
2018-09-16T08:04:07.616Z,102073.94
2018-09-16T08:06:34.879Z,102071.72
2018-09-16T08:09:02.077Z,102075.00
2018-09-16T08:11:29.311Z,102074.69
2018-09-16T08:13:56.576Z,102068.59
2018-09-16T08:16:23.741Z,102070.26
2018-09-16T08:18:50.892Z,102069.74
2018-09-16T08:21:18.210Z,102067.44
2018-09-16T08:23:45.397Z,102066.14
2018-09-16T08:26:12.581Z,102066.33
2018-09-16T08:28:39.811Z,102062.84
2018-09-16T08:31:07.050Z,102064.20
2018-09-16T08:33:34.274Z,102059.91
2018-09-16T08:36:01.566Z,102069.09
2018-09-16T08:38:28.811Z,102064.73
2018-09-16T08:40:55.989Z,102058.08
2018-09-16T08:43:23.256Z,102055.95
2018-09-16T08:45:50.531Z,102057.89
2018-09-16T08:48:17.773Z,102049.80
2018-09-16T08:50:45.112Z,102054.55
2018-09-16T08:53:12.345Z,102049.52
2018-09-16T08:55:39.597Z,102050.84
2018-09-16T08:58:06.906Z,102042.41
2018-09-16T09:00:34.541Z,102046.13
2018-09-16T09:03:01.809Z,102038.50
2018-09-16T09:05:29.102Z,102039.44
2018-09-16T09:07:56.359Z,102036.44
2018-09-16T09:10:24.639Z,102031.69
2018-09-16T09:12:51.984Z,102035.48
2018-09-16T09:15:19.197Z,102023.27
2018-09-16T09:17:46.433Z,102031.51
2018-09-16T09:20:13.758Z,102028.06
2018-09-16T09:22:41.027Z,102015.74
2018-09-16T09:25:08.251Z,102018.06
2018-09-16T09:27:35.515Z,102016.16
2018-09-16T09:30:02.752Z,102009.28
2018-09-16T09:32:29.973Z,102003.31
2018-09-16T09:34:57.243Z,102008.41
2018-09-16T09:37:24.470Z,102014.23
2018-09-16T09:39:51.700Z,102010.19
2018-09-16T09:42:18.996Z,102016.48
2018-09-16T09:44:46.217Z,102006.95
2018-09-16T09:47:13.439Z,101999.16
2018-09-16T09:49:40.750Z,101993.16
2018-09-16T09:52:08.016Z,101992.95
2018-09-16T09:54:35.237Z,101992.56
2018-09-16T09:57:02.584Z,101989.58
2018-09-16T09:59:30.038Z,101984.80
2018-09-16T10:01:57.230Z,101990.75
2018-09-16T10:04:24.555Z,101982.77
2018-09-16T10:06:53.882Z,101989.17
2018-09-16T10:09:21.099Z,101992.96
2018-09-16T10:11:48.447Z,101983.28
2018-09-16T10:14:15.801Z,101975.28
2018-09-16T10:16:43.007Z,101982.67
2018-09-16T10:19:10.289Z,101983.36
2018-09-16T10:21:37.542Z,101977.11
2018-09-16T10:24:04.824Z,101969.47
2018-09-16T10:26:32.180Z,101972.87
2018-09-16T10:28:59.415Z,101970.33
2018-09-16T10:31:27.850Z,101958.98
2018-09-16T10:33:55.570Z,101952.72
2018-09-16T10:36:22.802Z,101948.55
2018-09-16T10:38:50.069Z,101944.92
2018-09-16T10:41:17.369Z,101941.17
2018-09-16T10:43:44.574Z,101938.59
2018-09-16T10:46:11.774Z,101934.53
2018-09-16T10:48:39.026Z,101933.75
2018-09-16T10:51:10.155Z,101932.08
2018-09-16T10:53:37.360Z,101934.13
2018-09-16T10:56:04.666Z,101938.65
2018-09-16T10:58:31.888Z,101936.16
2018-09-16T11:00:59.111Z,101930.77
2018-09-16T11:03:26.362Z,101930.06
2018-09-16T11:05:53.570Z,101932.09
2018-09-16T11:08:20.798Z,101930.38
2018-09-16T11:10:48.041Z,101929.81
2018-09-16T11:13:15.281Z,101934.13
2018-09-16T11:15:42.624Z,101934.30
2018-09-16T11:18:09.858Z,101927.60
2018-09-16T11:20:37.074Z,101929.73
2018-09-16T11:23:04.405Z,101926.37
2018-09-16T11:25:31.653Z,101921.17
2018-09-16T11:27:58.854Z,101919.97
2018-09-16T11:30:26.070Z,101916.29
2018-09-16T11:32:53.374Z,101906.34
2018-09-16T11:35:20.580Z,101908.30
2018-09-16T11:37:47.733Z,101904.40
2018-09-16T11:40:14.941Z,101899.41
2018-09-16T11:42:42.113Z,101897.43
2018-09-16T11:45:09.309Z,101898.44
2018-09-16T11:47:36.531Z,101895.05
2018-09-16T11:50:03.743Z,101898.72
2018-09-16T11:52:30.949Z,101895.34
2018-09-16T11:54:58.230Z,101891.92
2018-09-16T11:57:25.393Z,101889.00
2018-09-16T11:59:52.566Z,101885.99
2018-09-16T12:02:19.895Z,101877.74
2018-09-16T12:04:47.096Z,101877.91
2018-09-16T12:07:14.270Z,101870.53
2018-09-16T12:09:41.473Z,101865.55
2018-09-16T12:12:08.695Z,101875.18
2018-09-16T12:14:35.882Z,101875.53
2018-09-16T12:17:03.178Z,101877.45
2018-09-16T12:19:30.346Z,101871.30
2018-09-16T12:21:57.525Z,101861.56
2018-09-16T12:24:24.749Z,101861.52
2018-09-16T12:26:51.917Z,101858.19
2018-09-16T12:29:19.110Z,101863.56
2018-09-16T12:31:46.345Z,101861.00
2018-09-16T12:34:13.510Z,101858.79
2018-09-16T12:36:40.678Z,101849.64
2018-09-16T12:39:10.329Z,101850.30
2018-09-16T12:41:37.562Z,101848.95
2018-09-16T12:44:04.870Z,101833.80
2018-09-16T12:46:32.109Z,101839.48
2018-09-16T12:48:59.269Z,101833.13
2018-09-16T12:51:26.442Z,101831.38
2018-09-16T12:53:53.681Z,101826.66
2018-09-16T12:56:20.870Z,101813.70
2018-09-16T12:58:48.049Z,101813.95
2018-09-16T13:01:15.350Z,101809.58
2018-09-16T13:03:42.505Z,101813.23
2018-09-16T13:06:09.677Z,101818.81
2018-09-16T13:08:36.897Z,101812.18
2018-09-16T13:11:04.164Z,101807.38
2018-09-16T13:13:31.367Z,101812.19
2018-09-16T13:15:58.566Z,101804.97
2018-09-16T13:18:25.821Z,101797.45
2018-09-16T13:20:52.985Z,101798.03
2018-09-16T13:23:20.228Z,101797.28
2018-09-16T13:25:47.389Z,101793.81
2018-09-16T13:28:14.562Z,101794.62
2018-09-16T13:30:41.784Z,101789.50
2018-09-16T13:33:08.975Z,101797.75
2018-09-16T13:35:36.170Z,101794.41
2018-09-16T13:38:03.408Z,101800.34
2018-09-16T13:40:30.585Z,101792.20
2018-09-16T13:42:57.786Z,101793.85
2018-09-16T13:45:25.048Z,101790.55
2018-09-16T13:47:52.257Z,101772.61
2018-09-16T13:50:19.453Z,101781.05
2018-09-16T13:52:46.749Z,101775.73
2018-09-16T13:55:13.943Z,101766.32
2018-09-16T13:57:41.124Z,101762.36
2018-09-16T14:00:08.413Z,101766.95
2018-09-16T14:02:35.610Z,101759.29
2018-09-16T14:05:02.879Z,101753.88
2018-09-16T14:07:30.121Z,101752.84
2018-09-16T14:09:57.684Z,101753.40
2018-09-16T14:12:24.964Z,101746.74
2018-09-16T14:14:53.912Z,101746.59
2018-09-16T14:17:21.175Z,101744.02
2018-09-16T14:19:48.391Z,101740.90
2018-09-16T14:22:16.473Z,101733.16
2018-09-16T14:24:43.826Z,101731.82
2018-09-16T14:27:11.099Z,101735.34
2018-09-16T14:29:38.314Z,101729.65
2018-09-16T14:32:06.812Z,101721.94
2018-09-16T14:34:34.052Z,101717.98
2018-09-16T14:37:02.894Z,101722.76
2018-09-16T16:21:47.370Z,101646.15
2018-09-16T16:27:04.965Z,101650.80
2018-09-16T16:29:32.747Z,101647.47
2018-09-16T16:32:03.221Z,101644.06
2018-09-16T16:34:30.547Z,101647.86
2018-09-16T16:36:57.773Z,101645.41
2018-09-16T16:39:25.219Z,101650.53
2018-09-16T16:41:52.498Z,101649.41
2018-09-16T16:44:19.845Z,101648.30
2018-09-16T16:46:47.080Z,101648.95
2018-09-16T16:49:14.326Z,101640.20
2018-09-16T16:51:41.548Z,101649.30
2018-09-16T16:54:08.892Z,101647.11
2018-09-16T16:56:36.174Z,101646.77
2018-09-16T16:59:03.451Z,101641.19
2018-09-16T17:01:30.682Z,101650.27
2018-09-16T17:03:57.937Z,101645.55
2018-09-16T17:06:25.126Z,101650.17
2018-09-16T17:08:52.312Z,101650.75
2018-09-16T17:11:19.655Z,101647.77
2018-09-16T17:13:47.190Z,101652.64
2018-09-16T17:16:14.362Z,101651.30
2018-09-16T17:18:41.614Z,101650.44
2018-09-16T17:21:08.820Z,101654.37
2018-09-16T17:23:36.199Z,101652.12
2018-09-16T17:26:03.449Z,101652.84
2018-09-16T17:28:30.742Z,101650.47
2018-09-16T17:30:57.973Z,101654.75
2018-09-16T17:33:25.571Z,101647.80
2018-09-16T17:35:52.766Z,101643.06
2018-09-16T17:38:20.054Z,101637.90
2018-09-16T17:40:48.660Z,101637.22
2018-09-16T17:43:15.858Z,101637.88
2018-09-16T17:45:53.908Z,101634.94
2018-09-16T17:48:24.487Z,101633.75
2018-09-16T17:50:51.723Z,101627.75
2018-09-16T17:53:21.814Z,101630.45
2018-09-16T17:55:49.102Z,101631.24
2018-09-16T17:58:16.292Z,101630.28
2018-09-16T18:00:43.604Z,101632.11
2018-09-16T18:03:10.819Z,101634.95
2018-09-16T18:08:40.222Z,101642.05
2018-09-16T18:11:09.280Z,101644.89
2018-09-16T18:13:38.476Z,101643.82
2018-09-16T18:16:08.700Z,101647.55
2018-09-16T18:18:38.905Z,101642.54
2018-09-16T18:21:06.125Z,101640.19
2018-09-16T18:23:33.465Z,101640.48
2018-09-16T18:26:00.665Z,101640.78
2018-09-16T18:28:31.511Z,101632.27
2018-09-16T18:31:02.038Z,101634.34
2018-09-16T18:33:29.405Z,101633.72
2018-09-16T18:35:56.614Z,101632.14
2018-09-16T18:38:23.795Z,101634.45
2018-09-16T18:40:51.011Z,101638.64
2018-09-16T18:43:18.197Z,101647.66
2018-09-16T18:48:27.882Z,101650.59
2018-09-16T18:50:55.033Z,101648.09
2018-09-16T18:53:22.252Z,101657.04
2018-09-16T18:55:49.805Z,101660.75
2018-09-16T18:58:16.932Z,101662.61
2018-09-16T19:00:44.128Z,101663.17
2018-09-16T19:03:11.330Z,101658.36
2018-09-16T19:05:38.457Z,101661.95
2018-09-16T19:08:06.140Z,101662.55
2018-09-16T19:10:33.352Z,101660.36
2018-09-16T19:13:00.518Z,101664.90
2018-09-16T19:15:27.798Z,101663.68
2018-09-16T19:17:55.043Z,101672.20
2018-09-16T19:20:22.301Z,101660.48
2018-09-16T19:22:49.494Z,101661.88
2018-09-16T19:25:16.741Z,101658.91
2018-09-16T19:27:43.891Z,101655.56
2018-09-16T19:30:11.188Z,101656.13
2018-09-16T19:32:38.389Z,101660.30
2018-09-16T19:35:05.588Z,101659.98
2018-09-16T19:37:32.846Z,101665.77
2018-09-16T19:40:00.313Z,101662.35
2018-09-16T19:42:27.606Z,101661.67
2018-09-16T19:44:54.762Z,101659.58
2018-09-16T19:47:22.089Z,101663.23
2018-09-16T19:49:49.300Z,101662.06
2018-09-16T19:52:16.506Z,101659.00
2018-09-16T19:54:43.744Z,101655.16
2018-09-16T19:57:10.951Z,101652.21
2018-09-16T19:59:38.185Z,101644.42
2018-09-16T20:02:05.795Z,101649.84
2018-09-16T20:04:33.015Z,101651.69
2018-09-16T20:07:01.206Z,101656.70
2018-09-16T20:09:28.369Z,101642.81
2018-09-16T20:11:55.566Z,101643.75
2018-09-16T20:14:23.237Z,101643.50
2018-09-16T20:16:50.436Z,101641.17
2018-09-16T20:19:17.556Z,101642.95
2018-09-16T20:21:45.031Z,101642.08
2018-09-16T20:24:13.546Z,101640.73
2018-09-16T20:26:40.682Z,101638.62
2018-09-16T20:29:07.848Z,101635.12
2018-09-16T20:31:35.125Z,101631.98
2018-09-16T20:34:02.674Z,101630.57
2018-09-16T20:36:29.850Z,101623.39
2018-09-16T20:38:57.029Z,101622.81
2018-09-16T20:41:24.368Z,101625.53
2018-09-16T20:43:51.542Z,101628.68
2018-09-16T20:46:18.756Z,101629.25
2018-09-16T20:48:45.949Z,101628.02
2018-09-16T20:51:13.067Z,101629.48
2018-09-16T20:53:40.233Z,101628.77
2018-09-16T20:56:07.499Z,101638.84
2018-09-16T20:58:34.691Z,101633.80
2018-09-16T21:01:01.947Z,101641.55
2018-09-16T21:03:29.150Z,101635.05
2018-09-16T21:05:56.301Z,101640.94
2018-09-16T21:08:23.494Z,101641.53
2018-09-16T21:10:50.643Z,101640.28
2018-09-16T21:13:17.944Z,101639.99
2018-09-16T21:16:00.084Z,101646.23
2018-09-16T21:18:36.570Z,101640.70
2018-09-16T21:21:03.773Z,101645.81
2018-09-16T21:23:32.657Z,101643.80
2018-09-16T21:25:59.968Z,101645.59
2018-09-16T21:28:27.079Z,101641.22
2018-09-16T21:30:54.246Z,101637.25
2018-09-16T21:33:21.456Z,101633.29
2018-09-16T21:35:48.626Z,101635.98
2018-09-16T21:38:15.790Z,101633.37
2018-09-16T21:40:43.002Z,101630.77
2018-09-16T21:43:11.200Z,101628.55
2018-09-16T21:45:38.392Z,101622.42
2018-09-16T21:48:05.589Z,101620.67
2018-09-16T21:50:32.815Z,101619.31
2018-09-16T21:52:59.964Z,101622.78
2018-09-16T21:55:27.118Z,101619.73
2018-09-16T21:57:54.584Z,101613.55
2018-09-16T22:00:21.765Z,101615.77
2018-09-16T22:02:49.008Z,101616.22
2018-09-16T22:05:16.269Z,101622.80
2018-09-16T22:07:43.456Z,101617.97
2018-09-16T22:10:10.630Z,101617.55
2018-09-16T22:12:37.817Z,101611.79
2018-09-16T22:15:04.999Z,101616.11
2018-09-16T22:17:32.152Z,101612.23
2018-09-16T22:19:59.350Z,101609.95
2018-09-16T22:22:26.497Z,101605.55
2018-09-16T22:24:53.698Z,101608.25
2018-09-16T22:27:20.934Z,101604.73
2018-09-16T22:29:48.075Z,101603.80
2018-09-16T22:32:15.229Z,101606.45
2018-09-16T22:34:42.476Z,101604.20
2018-09-16T22:37:09.710Z,101603.36
2018-09-16T22:39:42.050Z,101598.95
2018-09-16T22:42:09.256Z,101598.02
2018-09-16T22:44:36.420Z,101605.05
2018-09-16T22:47:03.734Z,101602.86
2018-09-16T22:49:30.893Z,101606.00
2018-09-16T22:51:58.094Z,101602.03
2018-09-16T22:54:25.379Z,101603.33
2018-09-16T22:56:52.545Z,101603.89
2018-09-16T22:59:19.704Z,101600.38
2018-09-16T23:01:46.931Z,101599.52
2018-09-16T23:04:14.107Z,101591.20
2018-09-16T23:06:41.324Z,101587.66
2018-09-16T23:09:12.963Z,101588.55
2018-09-16T23:11:41.643Z,101579.39
2018-09-16T23:14:08.814Z,101578.09
2018-09-16T23:16:36.126Z,101580.34
2018-09-16T23:19:03.294Z,101584.33
2018-09-16T23:21:30.462Z,101582.69
2018-09-16T23:23:57.681Z,101579.67
2018-09-16T23:26:24.980Z,101579.80
2018-09-16T23:28:52.224Z,101567.16
2018-09-16T23:31:19.509Z,101565.20
2018-09-16T23:33:46.732Z,101568.72
2018-09-16T23:36:14.365Z,101567.78
2018-09-16T23:38:41.584Z,101572.61
2018-09-16T23:41:08.759Z,101563.86
2018-09-16T23:43:35.981Z,101561.30
2018-09-16T23:46:03.277Z,101566.16
2018-09-16T23:48:30.425Z,101572.37
2018-09-16T23:50:57.596Z,101567.05
2018-09-16T23:53:24.789Z,101563.53
2018-09-16T23:55:51.949Z,101563.66
2018-09-16T23:58:19.114Z,101566.78
